Time;durP1;ratioP1;P1;durP2;ratioP2;P2;SDS_P1;SDS_P2;PMS_P1;PMS_P2;Temp;Humidity;BMP_temperature;BMP_pressure;BME280_temperature;BME280_humidity;BME280_pressure;Samples;Min_cycle;Max_cycle;Signal;HPM_P1;HPM_P2
2022/11/17 00:01:06;;;;;;;4.47;3.57;;;;;;;9.22;100.00;94996.63;5068257;28;20589;-60
2022/11/17 00:03:33;;;;;;;3.60;3.30;;;;;;;9.22;100.00;94986.09;5075005;28;20297;-60
2022/11/17 00:06:03;;;;;;;3.80;3.50;;;;;;;9.22;100.00;94986.91;5061429;28;20604;-60
2022/11/17 00:08:29;;;;;;;3.53;3.23;;;;;;;9.25;100.00;94983.09;5055289;28;20203;-60
2022/11/17 00:11:00;;;;;;;3.77;3.47;;;;;;;9.22;100.00;94980.81;5055165;28;20601;-59
2022/11/17 00:16:13;;;;;;;4.57;3.20;;;;;;;9.28;100.00;94974.84;5053946;28;20207;-59
2022/11/17 00:21:25;;;;;;;3.77;3.23;;;;;;;9.27;100.00;94976.66;5061728;28;20339;-59
2022/11/17 00:23:52;;;;;;;3.70;3.20;;;;;;;9.30;100.00;94980.78;5074585;28;20206;-60
2022/11/17 00:26:22;;;;;;;4.03;3.60;;;;;;;9.33;100.00;94981.22;5075042;28;20285;-58
2022/11/17 00:28:52;;;;;;;4.03;2.83;;;;;;;9.32;100.00;94986.69;5074811;28;20264;-60
2022/11/17 00:34:05;;;;;;;3.23;2.93;;;;;;;9.28;100.00;94986.19;5074504;28;20259;-60
2022/11/17 00:36:33;;;;;;;3.20;2.90;;;;;;;9.27;100.00;94989.84;5074858;28;20541;-60
2022/11/17 00:39:00;;;;;;;3.30;2.87;;;;;;;9.29;100.00;94985.22;5069934;28;20218;-59
2022/11/17 00:41:28;;;;;;;3.23;2.37;;;;;;;9.29;100.00;94979.94;5062320;28;20646;-58
2022/11/17 00:43:55;;;;;;;2.63;2.40;;;;;;;9.31;100.00;94974.50;5055467;28;20226;-60
2022/11/17 00:46:22;;;;;;;2.80;2.60;;;;;;;9.31;100.00;94980.59;5067036;28;20297;-58
2022/11/17 00:48:48;;;;;;;2.90;2.00;;;;;;;9.32;100.00;94976.94;5074368;28;20581;-59
2022/11/17 00:51:15;;;;;;;3.23;2.27;;;;;;;9.35;100.00;94983.72;5062327;28;20327;-59
2022/11/17 00:53:42;;;;;;;2.10;1.90;;;;;;;9.36;100.00;94978.25;5054757;28;20296;-58
2022/11/17 00:56:08;;;;;;;2.37;1.87;;;;;;;9.37;100.00;94977.25;5054719;28;20594;-58
2022/11/17 00:58:36;;;;;;;2.30;2.10;;;;;;;9.41;100.00;94981.19;5054590;28;20265;-58
2022/11/17 01:01:03;;;;;;;1.90;1.80;;;;;;;9.45;100.00;94984.28;5068077;28;20567;-59
2022/11/17 01:03:30;;;;;;;2.33;2.10;;;;;;;9.49;100.00;94972.41;5074682;28;20279;-60
2022/11/17 01:06:03;;;;;;;1.97;1.63;;;;;;;9.53;100.00;94970.22;5060880;28;20604;-60
2022/11/17 01:08:30;;;;;;;2.17;1.87;;;;;;;9.58;100.00;94959.94;5054506;28;20214;-60
2022/11/17 01:10:57;;;;;;;1.97;1.87;;;;;;;9.60;100.00;94964.03;5054174;28;20262;-60
2022/11/17 01:13:24;;;;;;;2.53;2.33;;;;;;;9.64;100.00;94938.94;5054469;28;20585;-60
2022/11/17 01:15:52;;;;;;;2.20;2.10;;;;;;;9.70;100.00;94932.13;5054109;28;20258;-59
2022/11/17 01:18:18;;;;;;;3.27;2.10;;;;;;;9.75;100.00;94925.31;5054524;28;20234;-59
2022/11/17 01:20:45;;;;;;;2.07;1.97;;;;;;;9.79;100.00;94916.03;5054380;28;20298;-60
2022/11/17 01:23:12;;;;;;;2.03;1.83;;;;;;;9.83;100.00;94916.50;5056733;28;20218;-60
2022/11/17 01:25:39;;;;;;;2.43;1.77;;;;;;;9.87;100.00;94908.03;5056961;28;20249;-62
2022/11/17 01:28:06;;;;;;;2.00;1.90;;;;;;;9.88;100.00;94896.44;5063199;28;20207;-58
2022/11/17 01:30:33;;;;;;;2.10;2.00;;;;;;;9.89;100.00;94898.09;5058526;28;20559;-59
2022/11/17 01:33:01;;;;;;;2.30;2.10;;;;;;;9.92;100.00;94900.38;5055961;28;20274;-58
2022/11/17 01:35:27;;;;;;;2.03;1.83;;;;;;;9.96;100.00;94892.91;5055674;28;20257;-58
2022/11/17 01:37:54;;;;;;;1.87;1.77;;;;;;;9.97;100.00;94887.47;5056259;28;20273;-59
2022/11/17 01:40:21;;;;;;;2.63;2.40;;;;;;;10.01;100.00;94893.19;5053246;28;20284;-58
2022/11/17 01:42:47;;;;;;;2.80;2.50;;;;;;;10.02;100.00;94898.28;5051054;28;20254;-58
2022/11/17 01:45:18;;;;;;;2.03;1.93;;;;;;;10.00;100.00;94886.25;5063538;28;20234;-58
2022/11/17 01:47:47;;;;;;;2.10;1.90;;;;;;;9.94;100.00;94876.44;5073057;28;20252;-58
2022/11/17 01:50:22;;;;;;;1.77;1.67;;;;;;;9.90;100.00;94860.16;5073841;28;20288;-58
2022/11/17 01:52:49;;;;;;;2.00;1.80;;;;;;;9.90;100.00;94846.13;5074273;28;20292;-58
2022/11/17 01:55:18;;;;;;;2.53;2.33;;;;;;;9.93;100.00;94856.31;5075636;28;20607;-58
2022/11/17 01:57:46;;;;;;;2.30;2.10;;;;;;;9.97;100.00;94849.66;5077572;28;20240;-57
2022/11/17 02:00:15;;;;;;;2.47;2.37;;;;;;;9.97;100.00;94839.13;5057910;28;20230;-58
2022/11/17 02:02:43;;;;;;;3.30;2.27;;;;;;;10.01;100.00;94824.53;5058051;28;20239;-59
2022/11/17 02:05:20;;;;;;;2.30;2.10;;;;;;;10.06;100.00;94814.22;5056501;28;20290;-60
2022/11/17 02:07:49;;;;;;;2.73;2.30;;;;;;;10.10;100.00;94812.03;5071037;28;20251;-57
2022/11/17 02:10:16;;;;;;;2.97;1.90;;;;;;;10.13;100.00;94793.22;5057712;28;20694;-58
2022/11/17 02:12:43;;;;;;;2.30;2.10;;;;;;;10.16;100.00;94782.31;5057922;28;20258;-57
2022/11/17 02:15:10;;;;;;;2.47;2.13;;;;;;;10.20;100.00;94780.94;5057599;28;20298;-58
2022/11/17 02:17:38;;;;;;;2.00;1.90;;;;;;;10.24;100.00;94784.81;5057321;28;20675;-58
2022/11/17 02:20:08;;;;;;;2.17;2.00;;;;;;;10.26;100.00;94790.75;5057428;28;20291;-57
2022/11/17 02:22:56;;;;;;;1.67;1.57;;;;;;;10.29;100.00;94798.28;5073371;28;20209;-59
2022/11/17 02:25:31;;;;;;;5.03;1.37;;;;;;;10.29;100.00;94801.75;5063838;28;20203;-58
2022/11/17 02:28:08;;;;;;;1.43;1.40;;;;;;;10.14;100.00;94793.03;5057151;28;20245;-59
2022/11/17 02:30:39;;;;;;;2.07;1.20;;;;;;;10.09;100.00;94799.88;5056749;28;20246;-59
2022/11/17 02:33:11;;;;;;;1.53;1.27;;;;;;;10.12;100.00;94810.06;5056656;28;20301;-59
2022/11/17 02:35:41;;;;;;;1.20;1.00;;;;;;;10.15;100.00;94849.31;5056762;28;20282;-59
2022/11/17 02:38:17;;;;;;;1.40;1.10;;;;;;;10.18;100.00;94872.72;5058150;28;20242;-58
2022/11/17 02:40:46;;;;;;;1.00;1.00;;;;;;;10.07;100.00;94875.78;5057019;28;20706;-58
2022/11/17 02:46:05;;;;;;;1.47;1.37;;;;;;;9.93;100.00;94880.06;5066248;28;20217;-58
2022/11/17 02:48:36;;;;;;;1.47;1.37;;;;;;;9.92;100.00;94860.78;5076545;28;20233;-58
2022/11/17 02:51:04;;;;;;;2.37;1.30;;;;;;;9.89;100.00;94863.78;5076919;28;20258;-57
2022/11/17 02:53:30;;;;;;;2.83;1.40;;;;;;;9.86;100.00;94872.06;5076947;28;20263;-58
2022/11/17 02:56:00;;;;;;;1.93;1.20;;;;;;;9.83;100.00;94884.81;5077317;28;20601;-58
2022/11/17 02:58:28;;;;;;;1.80;1.53;;;;;;;9.78;100.00;94866.88;5072757;28;20234;-58
2022/11/17 03:01:13;;;;;;;1.60;1.50;;;;;;;9.73;100.00;94853.41;5057890;28;20238;-58
2022/11/17 03:03:48;;;;;;;3.67;1.73;;;;;;;9.71;100.00;94854.56;5065081;28;20238;-58
2022/11/17 03:06:20;;;;;;;2.80;1.80;;;;;;;9.73;100.00;94852.59;5060712;28;20190;-57
2022/11/17 03:08:53;;;;;;;2.60;1.90;;;;;;;9.67;100.00;94840.91;5057123;28;20737;-59
2022/11/17 03:11:23;;;;;;;2.50;1.60;;;;;;;9.64;100.00;94829.91;5057110;28;20226;-59
2022/11/17 03:13:57;;;;;;;1.80;1.70;;;;;;;9.64;100.00;94828.09;5057009;28;20244;-58
2022/11/17 03:16:31;;;;;;;1.70;1.60;;;;;;;9.63;100.00;94826.47;5057410;28;20234;-59
2022/11/17 03:19:06;;;;;;;1.93;1.80;;;;;;;9.60;100.00;94826.81;5056904;28;20276;-58
2022/11/17 03:21:38;;;;;;;2.00;1.80;;;;;;;9.63;100.00;94836.22;5063710;28;20202;-57
2022/11/17 03:24:10;;;;;;;2.03;1.93;;;;;;;9.61;100.00;94839.00;5077107;28;20230;-57
2022/11/17 03:26:41;;;;;;;2.93;1.83;;;;;;;9.64;100.00;94832.53;5076743;28;20211;-58
2022/11/17 03:29:12;;;;;;;2.23;2.07;;;;;;;9.63;100.00;94828.28;5076253;28;20658;-58
2022/11/17 03:31:39;;;;;;;2.10;1.87;;;;;;;9.64;100.00;94833.38;5066459;28;20283;-59
2022/11/17 03:34:09;;;;;;;1.70;1.60;;;;;;;9.67;100.00;94848.84;5057414;28;20264;-57
2022/11/17 03:36:38;;;;;;;2.23;2.00;;;;;;;9.66;100.00;94857.78;5057055;28;20230;-57
2022/11/17 03:39:08;;;;;;;1.60;1.50;;;;;;;9.71;100.00;94871.22;5057263;28;20215;-59
2022/11/17 03:41:41;;;;;;;1.90;1.80;;;;;;;9.74;100.00;94860.31;5068217;28;20253;-57
2022/11/17 03:44:08;;;;;;;2.27;2.03;;;;;;;9.71;100.00;94839.56;5060576;28;20203;-59
2022/11/17 03:46:36;;;;;;;1.60;1.50;;;;;;;9.73;100.00;94832.28;5080040;28;20226;-59
2022/11/17 03:49:09;;;;;;;1.73;1.47;;;;;;;9.73;100.00;94837.56;5079095;28;20245;-58
2022/11/17 03:51:37;;;;;;;2.00;1.90;;;;;;;9.75;100.00;94838.19;5060016;28;20229;-59
2022/11/17 03:54:04;;;;;;;1.90;1.80;;;;;;;9.77;100.00;94830.94;5056857;28;20206;-58
2022/11/17 03:56:35;;;;;;;1.97;1.83;;;;;;;9.77;100.00;94832.75;5057550;28;20206;-59
2022/11/17 03:59:07;;;;;;;1.97;1.87;;;;;;;9.80;100.00;94830.56;5058464;28;20284;-60
2022/11/17 04:01:33;;;;;;;1.63;1.53;;;;;;;9.82;100.00;94815.34;5076061;28;20202;-58
2022/11/17 04:04:01;;;;;;;3.40;2.10;;;;;;;9.83;100.00;94806.44;5069243;28;20229;-59
2022/11/17 04:06:29;;;;;;;1.70;1.60;;;;;;;9.86;100.00;94819.28;5059754;28;20273;-58
2022/11/17 04:08:56;;;;;;;1.97;1.60;;;;;;;9.86;100.00;94827.19;5060749;28;20294;-58
2022/11/17 04:16:51;;;;;;;1.73;1.63;;;;;;;9.92;100.00;94802.69;5057750;28;20233;-59
2022/11/17 04:19:19;;;;;;;2.43;1.90;;;;;;;9.92;100.00;94800.06;5058580;28;20349;-58
2022/11/17 04:21:46;;;;;;;2.70;1.73;;;;;;;9.94;100.00;94794.59;5055892;28;20293;-58
2022/11/17 04:24:13;;;;;;;2.10;1.40;;;;;;;9.93;100.00;94812.25;5055597;28;20631;-58
2022/11/17 04:29:27;;;;;;;1.83;1.73;;;;;;;9.94;100.00;94798.06;5055682;28;20659;-59
2022/11/17 04:31:54;;;;;;;1.67;1.57;;;;;;;9.96;100.00;94789.94;5055516;28;20373;-59
2022/11/17 04:34:22;;;;;;;4.87;1.70;;;;;;;9.92;100.00;94799.22;5055134;28;20616;-59
2022/11/17 04:36:50;;;;;;;1.50;1.40;;;;;;;9.87;100.00;94807.72;5055826;28;20239;-57
2022/11/17 04:39:17;;;;;;;1.77;1.67;;;;;;;9.97;100.00;94802.97;5055551;28;20225;-57
2022/11/17 04:41:56;;;;;;;1.43;1.37;;;;;;;9.96;100.00;94793.41;5065209;28;20230;-58
2022/11/17 04:44:24;;;;;;;1.20;1.10;;;;;;;9.96;100.00;94790.75;5055396;28;20265;-58
2022/11/17 04:46:52;;;;;;;2.63;1.43;;;;;;;9.98;100.00;94787.94;5071752;28;20245;-58
2022/11/17 04:49:20;;;;;;;1.40;1.13;;;;;;;10.02;100.00;94778.66;5065288;28;20202;-58
2022/11/17 04:51:50;;;;;;;2.50;1.33;;;;;;;10.05;100.00;94793.31;5055369;28;20270;-57
2022/11/17 04:54:18;;;;;;;1.53;1.10;;;;;;;10.04;100.00;94795.13;5055870;28;20211;-58
2022/11/17 04:56:46;;;;;;;1.40;1.30;;;;;;;10.07;100.00;94807.13;5059248;28;20237;-58
2022/11/17 04:59:13;;;;;;;1.10;1.00;;;;;;;10.07;100.00;94809.78;5058482;28;20624;-57
2022/11/17 05:01:40;;;;;;;1.93;1.00;;;;;;;10.11;100.00;94819.78;5054727;28;20237;-59
2022/11/17 05:04:07;;;;;;;1.27;1.17;;;;;;;10.12;100.00;94805.59;5061796;28;20237;-58
2022/11/17 05:06:37;;;;;;;1.10;0.97;;;;;;;10.14;100.00;94813.31;5065664;28;20206;-58
2022/11/17 05:09:07;;;;;;;1.20;1.10;;;;;;;10.12;100.00;94816.16;5058228;28;20295;-59
2022/11/17 05:14:20;;;;;;;1.53;1.00;;;;;;;10.09;100.00;94811.25;5069673;28;20213;-57
2022/11/17 05:17:05;;;;;;;1.10;0.90;;;;;;;10.09;100.00;94811.25;5074842;28;20230;-57
2022/11/17 05:19:33;;;;;;;2.57;1.00;;;;;;;10.11;100.00;94809.22;5074726;28;20198;-57
2022/11/17 05:22:00;;;;;;;1.37;1.13;;;;;;;10.25;100.00;94811.06;5074371;28;20234;-57
2022/11/17 05:24:27;;;;;;;1.00;1.00;;;;;;;10.36;100.00;94812.41;5074358;28;20681;-57
2022/11/17 05:26:53;;;;;;;1.13;1.03;;;;;;;10.36;100.00;94817.69;5075090;28;20206;-56
2022/11/17 05:29:22;;;;;;;0.83;0.83;;;;;;;10.32;100.00;94817.22;5074601;28;20207;-57
2022/11/17 05:31:48;;;;;;;1.23;1.13;;;;;;;10.34;100.00;94803.84;5078322;28;20755;-55
2022/11/17 05:34:17;;;;;;;3.17;1.00;;;;;;;10.39;100.00;94802.28;5078222;28;20198;-56
2022/11/17 05:36:44;;;;;;;1.20;1.10;;;;;;;10.44;100.00;94807.00;5078526;28;20217;-57
2022/11/17 05:39:10;;;;;;;1.40;1.10;;;;;;;10.44;100.00;94810.47;5077909;28;20671;-56
2022/11/17 05:41:38;;;;;;;1.20;1.10;;;;;;;10.46;100.00;94799.69;5078048;28;20286;-57
2022/11/17 05:44:05;;;;;;;1.17;1.07;;;;;;;10.50;100.00;94808.88;5064705;28;20238;-56
2022/11/17 05:46:32;;;;;;;1.60;0.93;;;;;;;10.52;100.00;94828.03;5074041;28;20234;-56
2022/11/17 05:48:58;;;;;;;1.07;1.00;;;;;;;10.51;100.00;94823.75;5078222;28;20238;-56
2022/11/17 05:51:25;;;;;;;1.10;1.00;;;;;;;10.55;100.00;94827.66;5078116;28;20226;-56
2022/11/17 05:53:52;;;;;;;1.20;1.17;;;;;;;10.47;100.00;94828.59;5078116;28;20210;-57
2022/11/17 05:56:28;;;;;;;2.13;1.10;;;;;;;10.45;100.00;94835.06;5077803;28;20230;-58
2022/11/17 05:59:02;;;;;;;0.90;0.90;;;;;;;10.48;100.00;94839.97;5069242;28;20202;-59
2022/11/17 06:01:29;;;;;;;1.10;1.10;;;;;;;10.41;100.00;94833.81;5073685;28;20297;-58
2022/11/17 06:03:58;;;;;;;1.17;1.00;;;;;;;10.35;100.00;94834.53;5077877;28;20289;-57
2022/11/17 06:06:25;;;;;;;1.30;1.20;;;;;;;10.37;100.00;94849.22;5077702;28;20262;-57
2022/11/17 06:08:51;;;;;;;0.97;0.80;;;;;;;10.42;100.00;94840.69;5077356;28;20253;-58
2022/11/17 06:11:18;;;;;;;1.13;1.07;;;;;;;10.35;100.00;94838.00;5076941;28;20360;-57
2022/11/17 06:13:45;;;;;;;1.50;1.00;;;;;;;10.30;100.00;94826.34;5064409;28;20264;-58
2022/11/17 06:16:16;;;;;;;1.57;1.20;;;;;;;10.24;100.00;94813.88;5057496;28;20310;-57
2022/11/17 06:18:47;;;;;;;2.30;1.23;;;;;;;10.18;100.00;94818.09;5061881;28;20198;-59
2022/11/17 06:21:15;;;;;;;1.03;1.03;;;;;;;10.15;100.00;94809.72;5058855;28;20199;-58
2022/11/17 06:23:42;;;;;;;1.30;1.20;;;;;;;10.13;100.00;94807.22;5068944;28;20292;-58
2022/11/17 06:26:09;;;;;;;1.23;0.70;;;;;;;10.09;100.00;94805.97;5063670;28;20611;-57
2022/11/17 06:28:38;;;;;;;1.00;0.90;;;;;;;10.12;100.00;94800.31;5065358;28;20290;-59
2022/11/17 06:31:05;;;;;;;1.07;0.97;;;;;;;10.09;100.00;94805.16;5070245;28;20317;-58
2022/11/17 06:33:34;;;;;;;1.47;1.00;;;;;;;10.06;100.00;94801.03;5069447;28;20266;-59
2022/11/17 06:36:03;;;;;;;2.90;0.83;;;;;;;9.96;100.00;94797.84;5063593;28;20646;-59
2022/11/17 06:38:32;;;;;;;0.97;0.97;;;;;;;9.91;100.00;94787.88;5064305;28;20235;-58
2022/11/17 06:40:59;;;;;;;1.73;1.23;;;;;;;9.91;100.00;94795.78;5059955;28;20190;-58
2022/11/17 06:43:25;;;;;;;2.57;1.13;;;;;;;9.85;100.00;94796.50;5076992;28;20198;-57
2022/11/17 06:45:52;;;;;;;1.20;1.10;;;;;;;9.84;100.00;94802.81;5057169;28;20211;-57
2022/11/17 06:48:24;;;;;;;1.30;1.20;;;;;;;9.77;100.00;94807.19;5070611;28;20298;-58
2022/11/17 06:50:52;;;;;;;2.20;1.17;;;;;;;9.71;100.00;94815.81;5066308;28;20195;-57
2022/11/17 06:53:18;;;;;;;1.63;1.20;;;;;;;9.67;100.00;94821.66;5063843;28;20266;-57
2022/11/17 06:55:46;;;;;;;1.33;1.23;;;;;;;9.62;100.00;94824.00;5068623;28;20706;-58
2022/11/17 06:58:13;;;;;;;3.27;1.80;;;;;;;9.59;100.00;94824.38;5073597;28;20286;-58
2022/11/17 07:00:40;;;;;;;1.97;1.13;;;;;;;9.58;100.00;94834.09;5069369;28;20237;-57
2022/11/17 07:03:09;;;;;;;1.70;1.00;;;;;;;9.58;100.00;94836.75;5067485;28;20704;-58
2022/11/17 07:05:37;;;;;;;1.20;1.10;;;;;;;9.60;100.00;94832.09;5069235;28;20207;-58
2022/11/17 07:08:06;;;;;;;1.90;0.93;;;;;;;9.61;100.00;94833.75;5072388;28;20234;-57
2022/11/17 07:10:33;;;;;;;1.40;1.17;;;;;;;9.65;100.00;94821.81;5061372;28;20234;-57
2022/11/17 07:13:00;;;;;;;1.50;1.40;;;;;;;9.70;100.00;94824.75;5073412;28;20305;-57
2022/11/17 07:15:27;;;;;;;1.70;1.60;;;;;;;9.66;100.00;94818.19;5083248;28;20206;-59
2022/11/17 07:17:54;;;;;;;1.73;1.63;;;;;;;9.66;100.00;94814.72;5074742;28;20207;-57
2022/11/17 07:20:20;;;;;;;1.43;1.30;;;;;;;9.67;100.00;94811.88;5077138;28;20210;-58
2022/11/17 07:22:48;;;;;;;1.77;1.13;;;;;;;9.68;100.00;94815.34;5076545;28;20488;-59
2022/11/17 07:25:16;;;;;;;1.53;1.43;;;;;;;9.69;100.00;94815.19;5076397;28;20213;-57
2022/11/17 07:27:43;;;;;;;0.63;0.63;;;;;;;9.73;100.00;94800.63;5058189;28;20207;-58
2022/11/17 07:30:10;;;;;;;3.83;1.80;;;;;;;9.75;100.00;94795.16;5056626;28;20235;-58
2022/11/17 07:32:37;;;;;;;2.07;1.10;;;;;;;9.82;100.00;94819.81;5056187;28;20238;-58
2022/11/17 07:35:04;;;;;;;0.97;0.90;;;;;;;9.83;100.00;94806.44;5056765;28;20218;-58
2022/11/17 07:37:33;;;;;;;1.00;1.00;;;;;;;9.80;100.00;94822.66;5056192;28;20207;-58
2022/11/17 07:39:59;;;;;;;1.47;1.37;;;;;;;9.86;100.00;94843.03;5056043;28;20281;-59
2022/11/17 07:42:27;;;;;;;1.20;1.10;;;;;;;9.89;100.00;94842.66;5066795;28;20257;-57
2022/11/17 07:44:54;;;;;;;1.57;1.07;;;;;;;9.90;100.00;94849.59;5056259;28;20710;-58
2022/11/17 07:47:20;;;;;;;1.30;1.20;;;;;;;9.93;100.00;94853.69;5075688;28;20217;-58
2022/11/17 07:49:47;;;;;;;1.50;1.40;;;;;;;10.06;100.00;94838.00;5075677;28;20206;-58
2022/11/17 07:52:14;;;;;;;1.20;1.20;;;;;;;10.13;100.00;94825.69;5075761;28;20265;-58
2022/11/17 07:54:40;;;;;;;1.17;1.17;;;;;;;10.23;100.00;94828.09;5075612;28;20202;-59
2022/11/17 07:57:07;;;;;;;2.70;1.20;;;;;;;10.31;100.00;94822.69;5075680;28;20214;-58
2022/11/17 07:59:35;;;;;;;2.57;1.30;;;;;;;10.44;100.00;94821.03;5075697;28;20549;-58
2022/11/17 08:02:01;;;;;;;1.87;1.20;;;;;;;10.58;100.00;94821.19;5075606;28;20704;-59
2022/11/17 08:04:28;;;;;;;1.93;0.90;;;;;;;10.68;100.00;94825.16;5075248;28;20302;-59
2022/11/17 08:06:55;;;;;;;1.17;0.90;;;;;;;10.80;100.00;94821.00;5075834;28;20206;-57
2022/11/17 08:09:21;;;;;;;1.63;1.20;;;;;;;11.01;97.97;94822.81;5075536;28;20210;-58
2022/11/17 08:11:48;;;;;;;1.50;0.87;;;;;;;11.28;93.52;94819.38;5074841;28;20229;-58
2022/11/17 08:14:15;;;;;;;1.57;0.73;;;;;;;11.74;85.80;94822.38;5060324;28;20211;-58
2022/11/17 08:16:43;;;;;;;3.07;0.93;;;;;;;11.91;84.92;94821.06;5054930;28;20639;-58
2022/11/17 08:19:10;;;;;;;2.63;1.33;;;;;;;12.25;80.04;94811.44;5055271;28;20219;-59
2022/11/17 08:21:37;;;;;;;2.80;0.97;;;;;;;12.53;77.50;94814.00;5055195;28;20207;-59
2022/11/17 08:24:04;;;;;;;1.70;0.97;;;;;;;12.81;76.59;94818.16;5054910;28;20222;-59
2022/11/17 08:26:31;;;;;;;2.93;0.90;;;;;;;12.97;76.75;94824.91;5055432;28;20203;-59
2022/11/17 08:28:59;;;;;;;3.93;0.80;;;;;;;13.20;72.97;94832.53;5055014;28;20203;-59
2022/11/17 08:31:26;;;;;;;0.97;0.63;;;;;;;13.30;74.53;94832.94;5055009;28;20245;-57
2022/11/17 08:33:54;;;;;;;2.43;0.90;;;;;;;13.49;70.85;94832.13;5055167;28;20211;-58
2022/11/17 08:36:21;;;;;;;1.60;0.87;;;;;;;13.59;71.67;94843.16;5055163;28;20239;-58
2022/11/17 08:38:47;;;;;;;2.13;0.80;;;;;;;13.71;67.74;94833.53;5055263;28;20211;-59
2022/11/17 08:41:14;;;;;;;3.27;0.80;;;;;;;13.78;67.42;94841.50;5065226;28;20202;-58
2022/11/17 08:43:40;;;;;;;3.10;0.70;;;;;;;13.89;68.55;94854.13;5070718;28;20295;-59
2022/11/17 08:46:11;;;;;;;1.23;0.67;;;;;;;14.04;67.14;94862.69;5084755;28;20541;-58
2022/11/17 08:48:38;;;;;;;1.90;0.87;;;;;;;14.10;65.78;94863.72;5079836;28;20210;-57
2022/11/17 08:51:07;;;;;;;1.20;0.83;;;;;;;14.17;66.15;94862.66;5055947;28;20203;-58
2022/11/17 08:53:34;;;;;;;2.60;0.77;;;;;;;14.27;65.40;94872.88;5054658;28;20667;-58
2022/11/17 08:56:01;;;;;;;5.07;4.17;;;;;;;14.30;66.31;94873.28;5054697;28;20228;-59
2022/11/17 08:58:27;;;;;;;3.30;0.90;;;;;;;14.28;65.33;94874.50;5054882;28;20211;-58
2022/11/17 09:00:54;;;;;;;4.73;1.00;;;;;;;14.24;64.09;94878.63;5054704;28;20213;-59
2022/11/17 09:03:20;;;;;;;3.30;1.10;;;;;;;14.13;66.48;94881.91;5068156;28;20230;-58
2022/11/17 09:05:47;;;;;;;1.23;0.70;;;;;;;14.05;66.65;94882.94;5053741;28;20639;-58
2022/11/17 09:08:15;;;;;;;2.33;0.80;;;;;;;13.92;68.39;94875.78;5054726;28;20210;-58
2022/11/17 09:10:41;;;;;;;2.40;0.80;;;;;;;13.75;68.90;94889.69;5054515;28;20651;-58
2022/11/17 09:13:08;;;;;;;3.50;0.90;;;;;;;13.85;68.43;94882.97;5056847;28;20314;-59
2022/11/17 09:15:35;;;;;;;1.23;0.77;;;;;;;13.77;68.53;94893.81;5054628;28;20303;-59
2022/11/17 09:18:02;;;;;;;1.43;0.73;;;;;;;13.75;69.95;94901.16;5054721;28;20329;-58
2022/11/17 09:20:30;;;;;;;2.97;1.00;;;;;;;13.74;70.34;94919.97;5054374;28;20628;-58
2022/11/17 09:22:59;;;;;;;1.47;0.90;;;;;;;13.72;72.47;94914.03;5054287;28;20298;-58
2022/11/17 09:25:27;;;;;;;2.67;0.90;;;;;;;13.61;74.31;94915.44;5054620;28;20226;-58
2022/11/17 09:27:54;;;;;;;1.57;1.07;;;;;;;13.67;73.37;94919.97;5068197;28;20542;-59
2022/11/17 09:30:21;;;;;;;1.83;0.90;;;;;;;13.61;74.51;94915.44;5054429;28;20537;-58
2022/11/17 09:32:48;;;;;;;2.20;1.07;;;;;;;13.64;73.89;94916.91;5054179;28;20246;-59
2022/11/17 09:35:15;;;;;;;2.37;0.70;;;;;;;13.63;74.72;94910.78;5054404;28;20207;-59
2022/11/17 09:37:43;;;;;;;2.40;1.17;;;;;;;13.66;75.22;94902.41;5054304;28;20206;-58
2022/11/17 09:40:14;;;;;;;1.20;0.63;;;;;;;13.71;75.53;94923.03;5054570;28;20237;-58
2022/11/17 09:42:42;;;;;;;1.33;0.80;;;;;;;13.83;75.79;94908.94;5064510;28;20199;-58
2022/11/17 09:45:13;;;;;;;2.23;1.00;;;;;;;13.81;76.02;94926.94;5065031;28;20709;-58
2022/11/17 09:47:43;;;;;;;2.27;1.00;;;;;;;13.78;76.42;94935.28;5074471;28;20282;-59
2022/11/17 09:50:18;;;;;;;3.23;1.00;;;;;;;13.78;77.84;94932.63;5073804;28;20777;-59
2022/11/17 09:52:54;;;;;;;2.83;1.07;;;;;;;13.77;76.16;94931.00;5062980;28;20233;-59
2022/11/17 09:55:25;;;;;;;1.33;0.83;;;;;;;13.80;76.40;94930.59;5054392;28;20209;-58
2022/11/17 09:58:00;;;;;;;2.43;0.70;;;;;;;13.86;76.14;94940.41;5054312;28;20211;-59
2022/11/17 10:00:26;;;;;;;1.83;0.83;;;;;;;13.82;76.21;94944.47;5061691;28;20218;-58
2022/11/17 10:02:54;;;;;;;1.47;0.93;;;;;;;13.86;77.39;94939.56;5074049;28;20229;-58
2022/11/17 10:05:27;;;;;;;3.90;1.03;;;;;;;13.94;76.17;94931.41;5074205;28;20260;-58
2022/11/17 10:07:55;;;;;;;2.77;0.90;;;;;;;14.00;76.92;94956.31;5074278;28;20209;-58
2022/11/17 10:10:25;;;;;;;3.07;1.07;;;;;;;14.09;75.52;94949.78;5065816;28;20552;-58
2022/11/17 10:12:56;;;;;;;1.70;0.80;;;;;;;14.10;76.76;94954.09;5056436;28;20211;-58
2022/11/17 10:15:25;;;;;;;2.83;0.77;;;;;;;14.14;76.04;94931.38;5055038;28;20247;-59
2022/11/17 10:17:53;;;;;;;2.00;0.80;;;;;;;14.20;75.77;94926.06;5057619;28;20211;-58
2022/11/17 10:20:20;;;;;;;3.03;0.80;;;;;;;14.31;74.70;94933.38;5057538;28;20222;-59
2022/11/17 10:22:48;;;;;;;3.20;1.07;;;;;;;14.23;75.44;94930.16;5057749;28;20302;-58
2022/11/17 10:25:23;;;;;;;1.90;1.33;;;;;;;14.29;73.98;94931.97;5057743;28;20211;-59
2022/11/17 10:27:53;;;;;;;2.33;1.20;;;;;;;14.33;73.29;94919.91;5057479;28;20294;-58
2022/11/17 10:30:22;;;;;;;2.07;0.73;;;;;;;14.37;73.58;94921.16;5057513;28;20225;-59
2022/11/17 10:32:50;;;;;;;2.07;0.90;;;;;;;14.39;74.97;94930.56;5064059;28;20265;-59
2022/11/17 10:35:19;;;;;;;1.23;0.93;;;;;;;14.44;71.96;94927.28;5077154;28;20233;-59
2022/11/17 10:37:54;;;;;;;3.17;1.20;;;;;;;14.44;72.37;94927.28;5069379;28;20258;-59
2022/11/17 10:40:22;;;;;;;1.20;1.00;;;;;;;14.50;71.29;94921.13;5071039;28;20206;-58
2022/11/17 10:43:04;;;;;;;1.53;0.80;;;;;;;14.56;69.66;94938.09;5066963;28;20199;-58
2022/11/17 10:45:31;;;;;;;3.60;1.10;;;;;;;14.51;71.81;94943.22;5073568;28;20591;-59
2022/11/17 10:48:09;;;;;;;1.97;1.00;;;;;;;14.53;69.57;94920.69;5080399;28;20293;-58
2022/11/17 10:50:36;;;;;;;3.03;1.20;;;;;;;14.55;70.13;94944.44;5080619;28;20205;-59
2022/11/17 10:53:21;;;;;;;2.03;0.90;;;;;;;14.54;68.64;94954.25;5079941;28;20254;-59
2022/11/17 10:55:54;;;;;;;2.67;1.00;;;;;;;14.42;70.90;94945.25;5079562;28;20220;-59
2022/11/17 10:58:24;;;;;;;2.30;1.03;;;;;;;14.38;71.18;94939.53;5079547;28;20523;-59
2022/11/17 11:00:54;;;;;;;4.17;0.80;;;;;;;14.31;72.03;94932.59;5078232;28;20202;-59
2022/11/17 11:03:22;;;;;;;3.50;0.80;;;;;;;14.25;71.01;94928.09;5073242;28;20219;-58
2022/11/17 11:05:56;;;;;;;2.80;0.77;;;;;;;14.22;70.36;94923.19;5059408;28;20207;-59
2022/11/17 11:08:24;;;;;;;2.97;0.97;;;;;;;14.15;70.43;94928.53;5056804;28;20203;-58
2022/11/17 11:10:52;;;;;;;3.17;0.70;;;;;;;14.16;69.82;94927.50;5056965;28;20217;-58
2022/11/17 11:13:28;;;;;;;1.50;0.83;;;;;;;14.20;70.09;94925.25;5057235;28;20305;-58
2022/11/17 11:15:55;;;;;;;1.57;0.80;;;;;;;14.24;71.41;94899.91;5071378;28;20206;-59
2022/11/17 11:18:21;;;;;;;2.47;0.93;;;;;;;14.27;72.78;94920.75;5076536;28;20237;-58
2022/11/17 11:20:55;;;;;;;3.17;0.90;;;;;;;14.27;71.62;94923.41;5076741;28;20297;-59
2022/11/17 11:23:30;;;;;;;1.00;0.53;;;;;;;14.34;71.94;94921.56;5077030;28;20204;-58
2022/11/17 11:26:02;;;;;;;2.47;0.83;;;;;;;14.41;71.45;94917.88;5076593;28;20541;-60
2022/11/17 11:28:38;;;;;;;1.73;0.90;;;;;;;14.51;70.94;94912.13;5075977;28;20260;-59
2022/11/17 11:31:11;;;;;;;3.93;0.93;;;;;;;14.56;71.53;94909.63;5076517;28;20236;-58
2022/11/17 11:33:39;;;;;;;2.03;0.83;;;;;;;14.63;71.33;94918.41;5076416;28;20756;-59
2022/11/17 11:36:19;;;;;;;1.60;0.83;;;;;;;14.58;70.61;94907.59;5076460;28;20253;-59
2022/11/17 11:38:57;;;;;;;1.27;0.73;;;;;;;14.58;71.22;94918.25;5076064;28;20289;-58
2022/11/17 11:41:38;;;;;;;1.70;0.70;;;;;;;14.59;69.82;94909.25;5076458;28;20204;-58
2022/11/17 11:44:22;;;;;;;1.57;0.80;;;;;;;14.53;71.43;94901.25;5057641;28;20636;-58
2022/11/17 11:46:53;;;;;;;1.13;0.73;;;;;;;14.54;71.37;94906.38;5072120;28;20198;-58
2022/11/17 11:49:31;;;;;;;3.33;0.90;;;;;;;14.54;71.86;94905.56;5075637;28;20643;-59
2022/11/17 11:51:59;;;;;;;1.75;0.90;;;;;;;14.45;70.90;94881.06;5075972;28;20406;-59
2022/11/17 11:54:32;;;;;;;2.22;1.08;;;;;;;14.44;71.34;94903.34;5075565;28;20660;-60
2022/11/17 11:57:00;;;;;;;1.80;1.27;;;;;;;14.44;71.37;94898.03;5075708;28;20214;-57
2022/11/17 11:59:38;;;;;;;1.70;0.80;;;;;;;14.37;71.65;94895.38;5075628;28;20218;-59
2022/11/17 12:02:17;;;;;;;2.70;0.97;;;;;;;14.38;72.18;94896.22;5075731;28;20308;-59